createdAt,value
2022-08-22T00:01:43.279Z,71.52
2022-08-22T00:02:56.597Z,67.90
2022-08-22T00:03:07.585Z,68.07
2022-08-22T00:05:06.562Z,71.75
2022-08-22T00:08:21.761Z,72.06
2022-08-22T00:11:34.814Z,72.05
2022-08-22T00:14:46.950Z,72.15
2022-08-22T00:18:05.715Z,72.22
2022-08-22T00:21:19.920Z,71.92
2022-08-22T00:24:31.998Z,72.19
2022-08-22T00:28:10.132Z,72.52
2022-08-22T00:31:22.669Z,72.96
2022-08-22T00:34:34.548Z,72.79
2022-08-22T00:37:47.536Z,72.75
2022-08-22T00:41:10.670Z,72.51
2022-08-22T00:44:51.508Z,72.46
2022-08-22T00:48:22.413Z,72.49
2022-08-22T00:51:37.258Z,72.62
2022-08-22T00:55:03.468Z,72.47
2022-08-22T00:58:55.734Z,72.19
2022-08-22T01:02:30.451Z,72.08
2022-08-22T01:06:05.354Z,71.95
2022-08-22T01:09:14.883Z,71.90
2022-08-22T01:12:39.956Z,71.54
2022-08-22T01:15:44.889Z,71.39
2022-08-22T01:19:06.776Z,71.18
2022-08-22T01:22:47.590Z,71.28
2022-08-22T01:26:19.486Z,71.27
2022-08-22T01:29:28.381Z,71.06
2022-08-22T01:32:31.746Z,71.08
2022-08-22T01:35:34.666Z,71.00
2022-08-22T01:39:02.745Z,71.00
2022-08-22T01:42:37.772Z,70.95
2022-08-22T01:45:57.727Z,71.17
2022-08-22T01:49:22.316Z,71.14
2022-08-22T01:52:40.720Z,71.24
2022-08-22T01:55:57.298Z,71.34
2022-08-22T01:59:11.141Z,71.35
2022-08-22T02:02:23.400Z,71.36
2022-08-22T02:05:46.840Z,71.39
2022-08-22T02:09:14.450Z,71.58
2022-08-22T02:12:50.099Z,71.62
2022-08-22T02:16:20.183Z,71.82
2022-08-22T02:19:34.617Z,71.84
2022-08-22T02:22:44.635Z,71.55
2022-08-22T02:26:00.003Z,71.64
2022-08-22T02:29:42.600Z,71.71
2022-08-22T02:33:09.084Z,71.71
2022-08-22T02:36:48.747Z,71.91
2022-08-22T02:40:09.417Z,72.06
2022-08-22T02:43:27.271Z,71.91
2022-08-22T02:46:44.789Z,71.92
2022-08-22T02:50:00.548Z,71.87
2022-08-22T02:53:18.974Z,71.90
2022-08-22T02:56:34.181Z,71.99
2022-08-22T03:00:31.090Z,72.06
2022-08-22T03:03:40.446Z,72.08
2022-08-22T03:06:47.622Z,71.90
2022-08-22T03:10:02.292Z,71.55
2022-08-22T03:13:11.563Z,71.32
2022-08-22T03:16:25.486Z,71.39
2022-08-22T03:19:45.647Z,71.32
2022-08-22T03:23:00.189Z,71.39
2022-08-22T03:26:12.260Z,71.23
2022-08-22T03:29:27.925Z,71.29
2022-08-22T03:32:55.765Z,71.32
2022-08-22T03:36:19.820Z,71.21
2022-08-22T03:39:55.846Z,71.30
2022-08-22T03:43:21.839Z,71.33
2022-08-22T03:46:53.369Z,71.37
2022-08-22T03:50:22.961Z,71.48
2022-08-22T03:53:28.271Z,71.39
2022-08-22T03:56:44.969Z,71.59
2022-08-22T04:00:13.509Z,71.34
2022-08-22T04:03:17.377Z,71.42
2022-08-22T04:06:56.565Z,71.36
2022-08-22T04:10:15.618Z,71.53
2022-08-22T04:13:57.571Z,71.47
2022-08-22T04:17:37.285Z,71.51
2022-08-22T04:21:09.156Z,71.87
2022-08-22T04:24:39.700Z,71.96
2022-08-22T04:28:06.317Z,71.97
2022-08-22T04:31:12.994Z,72.06
2022-08-22T04:34:29.928Z,71.99
2022-08-22T04:37:48.428Z,72.05
2022-08-22T04:41:12.120Z,72.14
2022-08-22T04:44:25.233Z,72.14
2022-08-22T04:47:32.339Z,72.01
2022-08-22T04:50:43.167Z,72.15
2022-08-22T04:54:03.254Z,72.21
2022-08-22T04:57:35.188Z,72.48
2022-08-22T05:01:01.034Z,72.43
2022-08-22T05:04:12.042Z,72.44
2022-08-22T05:07:39.059Z,72.40
2022-08-22T05:10:46.647Z,72.68
2022-08-22T05:13:56.462Z,72.67
2022-08-22T05:17:00.673Z,72.47
2022-08-22T05:20:10.321Z,72.42
2022-08-22T05:23:20.234Z,72.64
2022-08-22T05:26:23.800Z,72.71
2022-08-22T05:29:30.147Z,72.68
2022-08-22T05:32:50.555Z,72.69
2022-08-22T05:36:01.886Z,72.60
2022-08-22T05:39:21.428Z,72.59
2022-08-22T05:42:37.691Z,72.63
2022-08-22T05:45:46.447Z,72.54
2022-08-22T05:49:00.088Z,72.56
2022-08-22T05:52:18.786Z,72.54
2022-08-22T05:55:37.951Z,72.47
2022-08-22T05:58:43.640Z,72.68
2022-08-22T06:01:53.739Z,72.73
2022-08-22T06:05:05.752Z,72.56
2022-08-22T06:08:25.806Z,72.53
2022-08-22T06:12:30.386Z,72.50
2022-08-22T06:15:49.732Z,72.58
2022-08-22T06:18:54.824Z,72.60
2022-08-22T06:21:59.428Z,72.45
2022-08-22T06:25:22.298Z,72.29
2022-08-22T06:28:38.572Z,72.34
2022-08-22T06:32:04.291Z,72.41
2022-08-22T06:35:15.660Z,72.33
2022-08-22T06:38:21.715Z,72.30
2022-08-22T06:41:29.682Z,72.17
2022-08-22T06:44:37.638Z,72.17
2022-08-22T06:47:49.352Z,72.32
2022-08-22T06:50:59.077Z,72.26
2022-08-22T06:54:05.755Z,72.27
2022-08-22T06:57:25.922Z,72.27
2022-08-22T07:00:29.751Z,72.29
2022-08-22T07:03:41.525Z,72.45
2022-08-22T07:06:50.612Z,72.56
2022-08-22T07:09:56.580Z,72.50
2022-08-22T07:13:00.064Z,72.43
2022-08-22T07:16:07.845Z,72.52
2022-08-22T07:19:25.345Z,72.58
2022-08-22T07:22:33.178Z,72.74
2022-08-22T07:25:50.322Z,72.71
2022-08-22T07:29:01.992Z,72.69
2022-08-22T07:32:30.453Z,72.65
2022-08-22T07:35:53.622Z,72.76
2022-08-22T07:39:30.375Z,72.94
2022-08-22T07:42:47.655Z,72.85
2022-08-22T07:45:56.575Z,72.81
2022-08-22T07:49:14.746Z,72.75
2022-08-22T07:52:18.862Z,72.97
2022-08-22T07:55:24.858Z,73.11
2022-08-22T07:58:31.749Z,72.96
2022-08-22T08:01:35.858Z,72.87
2022-08-22T08:04:40.999Z,73.02
2022-08-22T08:07:46.439Z,73.15
2022-08-22T08:10:52.293Z,73.14
2022-08-22T08:14:02.119Z,73.15
2022-08-22T08:17:13.732Z,73.08
2022-08-22T08:20:20.082Z,73.31
2022-08-22T08:23:25.614Z,73.36
2022-08-22T08:26:35.033Z,73.33
2022-08-22T08:29:39.331Z,73.24
2022-08-22T08:32:46.877Z,73.24
2022-08-22T08:36:13.826Z,73.06
2022-08-22T08:39:19.768Z,73.24
2022-08-22T08:43:11.655Z,73.07
2022-08-22T08:46:40.108Z,72.86
2022-08-22T08:49:52.395Z,72.88
2022-08-22T08:53:14.604Z,72.88
2022-08-22T08:56:30.270Z,72.86
2022-08-22T08:59:47.667Z,72.68
2022-08-22T09:02:56.676Z,72.58
2022-08-22T09:06:07.426Z,72.40
2022-08-22T09:09:39.971Z,72.23
2022-08-22T09:12:56.448Z,72.30
2022-08-22T09:16:30.443Z,72.34
2022-08-22T09:19:52.505Z,72.28
2022-08-22T09:23:30.408Z,72.25
2022-08-22T09:26:53.744Z,72.33
2022-08-22T09:30:27.755Z,72.61
2022-08-22T09:33:53.208Z,72.50
2022-08-22T09:37:04.983Z,72.69
2022-08-22T09:40:17.495Z,72.68
2022-08-22T09:43:44.134Z,72.59
2022-08-22T09:46:49.513Z,72.69
2022-08-22T09:50:02.342Z,72.67
2022-08-22T09:53:09.414Z,72.54
2022-08-22T09:56:19.204Z,72.19
2022-08-22T09:59:58.490Z,72.22
2022-08-22T10:03:19.893Z,72.26
2022-08-22T10:06:31.162Z,72.11
2022-08-22T10:09:55.722Z,71.86
2022-08-22T10:13:10.412Z,71.76
2022-08-22T10:16:19.951Z,71.87
2022-08-22T10:19:23.157Z,71.80
2022-08-22T10:22:39.639Z,71.54
2022-08-22T10:26:22.907Z,71.15
2022-08-22T10:29:57.838Z,71.03
2022-08-22T10:33:13.696Z,71.13
2022-08-22T10:36:26.276Z,71.16
2022-08-22T10:39:49.258Z,71.16
2022-08-22T10:43:14.085Z,71.14
2022-08-22T10:46:43.313Z,71.16
2022-08-22T10:49:54.103Z,70.93
2022-08-22T10:53:29.623Z,71.08
2022-08-22T10:56:43.944Z,70.77
2022-08-22T11:00:01.153Z,70.57
2022-08-22T11:03:23.456Z,70.70
2022-08-22T11:06:37.662Z,70.80
2022-08-22T11:10:04.013Z,70.79
2022-08-22T11:13:29.061Z,70.58
2022-08-22T11:16:58.828Z,70.74
2022-08-22T11:20:25.757Z,70.95
2022-08-22T11:24:34.625Z,70.89
2022-08-22T11:28:01.047Z,70.99
2022-08-22T11:31:22.795Z,71.08
2022-08-22T11:34:56.105Z,70.99
2022-08-22T11:38:11.250Z,71.11
2022-08-22T11:41:25.850Z,71.16
2022-08-22T11:44:50.067Z,71.25
2022-08-22T11:48:07.117Z,71.24
2022-08-22T11:51:39.277Z,71.12
2022-08-22T11:55:20.126Z,71.04
2022-08-22T11:58:36.390Z,71.32
2022-08-22T12:01:57.122Z,71.35
2022-08-22T12:05:13.750Z,71.32
2022-08-22T12:08:29.424Z,71.27
2022-08-22T12:11:41.176Z,71.11
2022-08-22T12:14:54.804Z,70.96
2022-08-22T12:18:35.654Z,70.83
2022-08-22T12:22:16.705Z,70.81
2022-08-22T12:26:01.354Z,70.22
2022-08-22T12:29:33.554Z,70.03
2022-08-22T12:32:37.545Z,70.11
2022-08-22T12:36:17.966Z,70.40
2022-08-22T12:39:27.644Z,70.52
2022-08-22T12:42:47.447Z,70.44
2022-08-22T12:46:02.804Z,70.23
2022-08-22T12:49:31.870Z,69.55
2022-08-22T12:52:50.034Z,69.36
2022-08-22T12:56:12.583Z,69.09
2022-08-22T12:59:22.644Z,68.65
2022-08-22T13:02:34.063Z,68.12
2022-08-22T13:05:45.268Z,67.65
2022-08-22T13:09:01.544Z,68.02
2022-08-22T13:12:27.784Z,67.59
2022-08-22T13:15:54.970Z,67.13
2022-08-22T13:19:07.395Z,67.28
2022-08-22T13:22:17.952Z,67.57
2022-08-22T13:25:26.165Z,67.52
2022-08-22T13:28:30.500Z,67.17
2022-08-22T13:31:39.049Z,66.46
2022-08-22T13:34:52.507Z,65.81
2022-08-22T13:38:06.231Z,66.43
2022-08-22T13:41:10.332Z,66.67
2022-08-22T13:44:36.320Z,66.71
2022-08-22T13:47:51.597Z,66.67
2022-08-22T13:51:18.706Z,66.75
2022-08-22T13:54:45.973Z,67.03
2022-08-22T13:57:53.808Z,66.90
2022-08-22T14:01:05.136Z,67.00
2022-08-22T14:04:36.460Z,67.01
2022-08-22T14:07:58.541Z,67.12
2022-08-22T14:11:12.780Z,67.30
2022-08-22T14:14:32.073Z,67.46
2022-08-22T14:17:42.689Z,67.49
2022-08-22T14:20:48.604Z,67.69
2022-08-22T14:23:57.060Z,67.63
2022-08-22T14:27:40.529Z,67.94
2022-08-22T14:31:13.791Z,68.21
2022-08-22T14:34:17.616Z,68.58
2022-08-22T14:37:34.280Z,68.85
2022-08-22T14:40:43.283Z,69.18
2022-08-22T14:43:59.361Z,69.32
2022-08-22T14:47:15.852Z,69.59
2022-08-22T14:51:04.387Z,70.02
2022-08-22T14:58:53.663Z,70.36
2022-08-22T15:02:03.792Z,70.43
2022-08-22T15:05:21.261Z,70.75
2022-08-22T15:08:29.485Z,70.95
2022-08-22T15:11:34.516Z,71.00
2022-08-22T15:14:37.971Z,70.93
2022-08-22T15:17:44.665Z,70.86
2022-08-22T15:21:00.402Z,71.05
2022-08-22T15:24:10.063Z,71.05
2022-08-22T15:27:21.000Z,71.05
2022-08-22T15:30:44.384Z,71.08
2022-08-22T15:33:49.491Z,71.02
2022-08-22T15:37:18.927Z,71.06
2022-08-22T15:40:40.377Z,70.94
2022-08-22T15:43:50.137Z,70.81
2022-08-22T15:46:53.329Z,70.79
2022-08-22T15:50:11.494Z,70.70
2022-08-22T15:53:27.256Z,70.65
2022-08-22T15:56:39.595Z,70.22
2022-08-22T15:59:58.123Z,68.80
2022-08-22T16:03:24.614Z,68.13
2022-08-22T16:06:47.378Z,67.63
2022-08-22T16:09:53.939Z,68.27
2022-08-22T16:13:27.477Z,68.89
2022-08-22T16:16:45.797Z,68.85
2022-08-22T16:19:49.893Z,68.88
2022-08-22T16:22:56.834Z,69.19
2022-08-22T16:26:00.769Z,69.77
2022-08-22T16:29:07.605Z,70.09
2022-08-22T16:32:12.251Z,70.32
2022-08-22T16:35:54.183Z,70.84
2022-08-22T16:38:57.797Z,71.33
2022-08-22T16:42:12.932Z,71.91
2022-08-22T16:45:21.182Z,71.85
2022-08-22T16:48:39.729Z,72.26
2022-08-22T16:52:20.620Z,72.18
2022-08-22T16:55:29.812Z,72.54
2022-08-22T16:59:13.904Z,72.97
2022-08-22T17:02:37.477Z,73.61
2022-08-22T17:05:58.676Z,73.48
2022-08-22T17:09:20.180Z,73.70
2022-08-22T17:12:47.461Z,74.18
2022-08-22T17:16:17.196Z,74.39
2022-08-22T17:19:39.035Z,74.60
2022-08-22T17:23:08.929Z,75.21
2022-08-22T17:26:47.504Z,74.74
2022-08-22T17:30:09.717Z,74.76
2022-08-22T17:33:21.156Z,74.47
2022-08-22T17:36:41.804Z,74.95
2022-08-22T17:40:16.210Z,74.75
2022-08-22T17:43:44.636Z,74.71
2022-08-22T17:47:04.248Z,75.10
2022-08-22T17:50:16.324Z,74.96
2022-08-22T17:53:37.517Z,75.20
2022-08-22T17:56:50.145Z,75.57
2022-08-22T18:00:17.030Z,75.57
2022-08-22T18:03:35.852Z,75.86
2022-08-22T18:06:55.428Z,75.86
2022-08-22T18:10:03.302Z,75.84
2022-08-22T18:13:15.173Z,75.67
2022-08-22T18:16:29.386Z,75.42
2022-08-22T18:19:41.687Z,75.65
2022-08-22T18:23:35.528Z,75.73
2022-08-22T18:26:42.067Z,75.62
2022-08-22T18:29:56.297Z,75.76
2022-08-22T18:33:06.440Z,75.78
2022-08-22T18:36:22.817Z,75.53
2022-08-22T18:39:39.558Z,75.32
2022-08-22T18:43:13.541Z,75.58
2022-08-22T18:46:34.587Z,76.00
2022-08-22T18:49:43.548Z,75.84
2022-08-22T18:52:46.745Z,75.69
2022-08-22T18:56:08.038Z,75.60
2022-08-22T18:59:46.950Z,75.75
2022-08-22T19:02:56.027Z,75.86
2022-08-22T19:06:24.696Z,76.03
2022-08-22T19:10:05.841Z,76.03
2022-08-22T19:13:16.577Z,76.03
2022-08-22T19:16:44.546Z,76.12
2022-08-22T19:20:18.595Z,76.19
2022-08-22T19:23:36.836Z,76.34
2022-08-22T19:26:43.622Z,76.36
2022-08-22T19:29:50.156Z,76.21
2022-08-22T19:33:10.890Z,76.41
2022-08-22T19:36:32.861Z,76.25
2022-08-22T19:39:43.247Z,76.17
2022-08-22T19:42:50.204Z,75.82
2022-08-22T19:45:56.212Z,75.89
2022-08-22T19:48:59.452Z,75.94
2022-08-22T19:52:21.466Z,75.82
2022-08-22T19:55:51.356Z,75.94
2022-08-22T19:59:32.602Z,75.83
2022-08-22T20:02:52.038Z,75.88
2022-08-22T20:06:40.795Z,75.80
2022-08-22T20:10:02.461Z,75.69
2022-08-22T20:13:19.036Z,75.67
2022-08-22T20:16:43.297Z,75.68
2022-08-22T20:20:19.005Z,75.67
2022-08-22T20:23:31.006Z,75.63
2022-08-22T20:26:47.351Z,75.57
2022-08-22T20:30:11.044Z,75.78
2022-08-22T20:33:26.325Z,75.79
2022-08-22T20:36:30.639Z,75.70
2022-08-22T20:39:50.051Z,75.64
2022-08-22T20:43:10.881Z,75.70
2022-08-22T20:46:39.147Z,75.67
2022-08-22T20:50:39.857Z,75.72
2022-08-22T20:53:50.326Z,75.68
2022-08-22T20:57:19.023Z,75.68
2022-08-22T21:00:31.878Z,75.68
2022-08-22T21:04:03.836Z,75.88
2022-08-22T21:07:06.834Z,75.87
2022-08-22T21:10:38.491Z,75.78
2022-08-22T21:13:45.371Z,75.92
2022-08-22T21:16:49.209Z,76.12
2022-08-22T21:19:58.096Z,76.03
2022-08-22T21:23:09.249Z,75.79
2022-08-22T21:26:29.144Z,75.95
2022-08-22T21:29:35.459Z,76.13
2022-08-22T21:32:53.613Z,76.33
2022-08-22T21:36:00.364Z,76.34
2022-08-22T21:39:12.213Z,76.16
2022-08-22T21:42:25.167Z,76.02
2022-08-22T21:45:40.938Z,76.25
2022-08-22T21:48:58.593Z,76.36
2022-08-22T21:52:01.865Z,76.31
2022-08-22T21:55:30.189Z,76.16
2022-08-22T21:58:37.411Z,76.57
2022-08-22T22:01:42.675Z,76.65
2022-08-22T22:04:51.923Z,76.77
2022-08-22T22:07:55.251Z,76.60
2022-08-22T22:11:06.231Z,76.65
2022-08-22T22:14:11.686Z,76.83
2022-08-22T22:17:14.660Z,77.16
2022-08-22T22:20:20.566Z,77.34
2022-08-22T22:23:24.593Z,77.10
2022-08-22T22:26:29.002Z,77.13
2022-08-22T22:29:33.710Z,77.28
2022-08-22T22:32:36.582Z,77.27
2022-08-22T22:35:40.986Z,77.26
2022-08-22T22:38:44.439Z,77.30
2022-08-22T22:41:47.642Z,77.48
2022-08-22T22:44:50.826Z,77.52
2022-08-22T22:47:53.813Z,77.81
2022-08-22T22:50:56.975Z,77.49
2022-08-22T22:53:59.857Z,77.68
2022-08-22T22:57:04.044Z,77.96
2022-08-22T23:00:08.241Z,77.97
2022-08-22T23:03:11.110Z,77.95
2022-08-22T23:06:16.848Z,77.84
2022-08-22T23:09:19.826Z,78.05
2022-08-22T23:12:27.655Z,78.05
2022-08-22T23:15:30.678Z,78.03
2022-08-22T23:18:33.704Z,78.22
2022-08-22T23:21:36.832Z,78.40
2022-08-22T23:24:40.522Z,78.70
2022-08-22T23:27:44.409Z,79.10
2022-08-22T23:30:51.800Z,79.03
2022-08-22T23:33:55.533Z,79.52
2022-08-22T23:37:00.196Z,79.47
2022-08-22T23:40:08.823Z,79.21
2022-08-22T23:43:12.683Z,79.52
2022-08-22T23:46:17.258Z,79.35
2022-08-22T23:49:20.873Z,79.56
2022-08-22T23:52:24.050Z,79.28
2022-08-22T23:55:27.027Z,79.16
2022-08-22T23:58:29.999Z,79.42
